createdAt,value
2019-03-20T00:01:54.652Z,96.33
2019-03-20T00:04:26.394Z,95.52
2019-03-20T00:06:56.682Z,96.05
2019-03-20T00:09:27.077Z,96.18
2019-03-20T00:11:58.908Z,96.28
2019-03-20T00:14:30.557Z,96.23
2019-03-20T00:17:00.714Z,96.32
2019-03-20T00:19:32.784Z,96.31
2019-03-20T00:22:04.104Z,96.00
2019-03-20T00:24:35.396Z,95.72
2019-03-20T00:27:06.350Z,95.84
2019-03-20T00:29:38.636Z,95.65
2019-03-20T00:32:10.242Z,95.60
2019-03-20T00:34:40.464Z,95.48
2019-03-20T00:37:10.787Z,95.59
2019-03-20T00:39:42.034Z,95.79
2019-03-20T00:42:12.322Z,95.99
2019-03-20T00:44:42.498Z,96.25
2019-03-20T00:47:14.408Z,95.80
2019-03-20T00:49:45.792Z,96.19
2019-03-20T00:52:15.974Z,96.25
2019-03-20T00:54:47.017Z,96.37
2019-03-20T00:57:18.230Z,96.61
2019-03-20T00:59:49.566Z,97.13
2019-03-20T01:02:20.076Z,97.75
2019-03-20T01:04:50.260Z,98.11
2019-03-20T01:07:22.068Z,98.21
2019-03-20T01:09:52.650Z,98.47
2019-03-20T01:12:23.085Z,98.86
2019-03-20T01:14:53.304Z,98.96
2019-03-20T01:17:23.635Z,98.85
2019-03-20T01:19:55.643Z,98.63
2019-03-20T01:22:26.016Z,98.37
2019-03-20T01:24:56.316Z,98.55
2019-03-20T01:27:26.518Z,98.34
2019-03-20T01:29:56.733Z,98.47
2019-03-20T01:32:27.081Z,98.52
2019-03-20T01:34:58.104Z,98.61
2019-03-20T01:37:28.361Z,98.80
2019-03-20T01:39:59.439Z,98.82
2019-03-20T01:42:29.665Z,98.90
2019-03-20T01:44:59.987Z,99.15
2019-03-20T01:47:31.104Z,99.22
2019-03-20T01:50:02.425Z,99.32
2019-03-20T01:52:32.685Z,99.39
2019-03-20T01:55:04.803Z,99.14
2019-03-20T01:57:35.137Z,99.24
2019-03-20T02:00:05.907Z,99.63
2019-03-20T02:02:36.111Z,99.94
2019-03-20T02:05:06.798Z,100.00
2019-03-20T02:07:36.963Z,100.00
2019-03-20T02:10:09.009Z,100.00
2019-03-20T02:12:39.146Z,100.00
2019-03-20T02:15:12.628Z,100.00
2019-03-20T02:17:43.552Z,99.97
2019-03-20T02:20:15.243Z,99.99
2019-03-20T02:22:45.549Z,100.00
2019-03-20T02:25:15.795Z,100.00
2019-03-20T02:27:46.098Z,100.00
2019-03-20T02:30:17.265Z,100.00
2019-03-20T02:32:48.978Z,100.00
2019-03-20T02:35:19.941Z,100.00
2019-03-20T02:38:13.167Z,100.00
2019-03-20T02:41:11.192Z,100.00
2019-03-20T02:44:07.556Z,100.00
2019-03-20T02:47:03.043Z,100.00
2019-03-20T02:49:59.602Z,100.00
2019-03-20T02:52:55.897Z,100.00
2019-03-20T02:55:53.302Z,100.00
2019-03-20T02:58:48.885Z,100.00
2019-03-20T03:01:46.480Z,100.00
2019-03-20T03:04:43.322Z,100.00
2019-03-20T03:07:39.146Z,100.00
2019-03-20T03:10:34.857Z,100.00
2019-03-20T03:13:30.716Z,100.00
2019-03-20T03:16:27.241Z,100.00
2019-03-20T03:19:22.799Z,100.00
2019-03-20T03:22:19.428Z,100.00
2019-03-20T03:25:17.065Z,100.00
2019-03-20T03:28:12.843Z,100.00
2019-03-20T03:31:09.460Z,100.00
2019-03-20T03:34:05.265Z,100.00
2019-03-20T03:37:01.817Z,100.00
2019-03-20T03:39:56.779Z,100.00
2019-03-20T03:42:53.331Z,100.00
2019-03-20T03:45:49.941Z,100.00
2019-03-20T03:48:45.493Z,100.00
2019-03-20T03:51:42.803Z,100.00
2019-03-20T03:54:39.575Z,100.00
2019-03-20T03:57:36.056Z,100.00
2019-03-20T04:00:31.897Z,100.00
2019-03-20T04:03:29.550Z,100.00
2019-03-20T04:06:35.848Z,100.00
2019-03-20T04:09:28.656Z,100.00
2019-03-20T04:12:26.290Z,100.00
2019-03-20T04:15:22.088Z,100.00
2019-03-20T04:18:18.348Z,100.00
2019-03-20T04:21:14.233Z,100.00
2019-03-20T04:24:11.324Z,100.00
2019-03-20T04:27:06.320Z,100.00
2019-03-20T04:30:02.293Z,100.00
2019-03-20T04:33:00.053Z,100.00
2019-03-20T04:35:55.807Z,100.00
2019-03-20T04:38:52.378Z,100.00
2019-03-20T04:41:48.143Z,100.00
2019-03-20T04:44:44.638Z,100.00
2019-03-20T04:47:40.323Z,100.00
2019-03-20T04:50:36.481Z,100.00
2019-03-20T04:53:32.517Z,100.00
2019-03-20T04:56:29.227Z,100.00
2019-03-20T04:59:27.159Z,100.00
2019-03-20T05:02:23.956Z,100.00
2019-03-20T05:05:20.773Z,100.00
2019-03-20T05:08:15.971Z,100.00
2019-03-20T05:11:12.439Z,100.00
2019-03-20T05:14:08.889Z,100.00
2019-03-20T05:17:05.809Z,100.00
2019-03-20T05:20:01.327Z,100.00
2019-03-20T05:22:59.135Z,100.00
2019-03-20T05:25:54.922Z,100.00
2019-03-20T05:28:51.667Z,100.00
2019-03-20T05:31:48.428Z,100.00
2019-03-20T05:34:45.003Z,100.00
2019-03-20T05:37:41.706Z,100.00
2019-03-20T05:40:36.814Z,100.00
2019-03-20T05:43:33.911Z,100.00
2019-03-20T05:46:29.900Z,100.00
2019-03-20T05:49:26.633Z,100.00
2019-03-20T05:52:22.003Z,100.00
2019-03-20T05:55:18.512Z,100.00
2019-03-20T05:58:16.251Z,100.00
2019-03-20T06:01:13.094Z,100.00
2019-03-20T06:04:10.960Z,100.00
2019-03-20T06:07:06.742Z,100.00
2019-03-20T06:10:03.560Z,100.00
2019-03-20T06:12:59.085Z,100.00
2019-03-20T06:15:55.894Z,100.00
2019-03-20T06:18:52.148Z,100.00
2019-03-20T06:21:47.960Z,100.00
2019-03-20T06:24:44.674Z,100.00
2019-03-20T06:27:40.481Z,100.00
2019-03-20T06:30:36.304Z,100.00
2019-03-20T06:33:32.028Z,100.00
2019-03-20T06:36:28.896Z,100.00
2019-03-20T06:39:25.616Z,100.00
2019-03-20T06:42:22.238Z,100.00
2019-03-20T06:45:18.698Z,100.00
2019-03-20T06:48:15.402Z,100.00
2019-03-20T06:51:10.516Z,100.00
2019-03-20T06:54:08.240Z,100.00
2019-03-20T06:57:04.768Z,100.00
2019-03-20T07:00:24.657Z,100.00
2019-03-20T07:03:22.138Z,100.00
2019-03-20T07:06:28.022Z,100.00
2019-03-20T07:09:51.434Z,100.00
2019-03-20T07:12:46.937Z,100.00
2019-03-20T07:15:42.785Z,100.00
2019-03-20T07:18:38.780Z,100.00
2019-03-20T07:21:34.503Z,100.00
2019-03-20T07:24:32.325Z,100.00
2019-03-20T07:27:27.629Z,100.00
2019-03-20T07:30:24.226Z,100.00
2019-03-20T07:33:20.070Z,100.00
2019-03-20T07:36:17.710Z,100.00
2019-03-20T07:39:13.282Z,100.00
2019-03-20T07:42:08.978Z,100.00
2019-03-20T07:45:05.479Z,100.00
2019-03-20T07:48:03.462Z,100.00
2019-03-20T07:50:58.999Z,99.72
2019-03-20T07:53:55.853Z,99.33
2019-03-20T07:56:51.515Z,98.25
2019-03-20T07:59:47.983Z,97.39
2019-03-20T08:02:46.661Z,97.01
2019-03-20T08:05:42.694Z,95.72
2019-03-20T08:08:39.063Z,94.81
2019-03-20T08:11:34.907Z,93.58
2019-03-20T08:14:31.659Z,92.83
2019-03-20T08:17:27.520Z,92.28
2019-03-20T08:20:24.037Z,90.07
2019-03-20T08:23:19.564Z,88.90
2019-03-20T08:26:17.054Z,88.41
2019-03-20T08:29:13.395Z,87.27
2019-03-20T08:32:10.025Z,85.38
2019-03-20T08:35:06.754Z,85.22
2019-03-20T08:38:02.584Z,84.53
2019-03-20T08:40:59.121Z,80.04
2019-03-20T08:43:54.662Z,79.09
2019-03-20T08:46:51.783Z,79.50
2019-03-20T08:49:47.034Z,78.50
2019-03-20T08:52:44.035Z,77.09
2019-03-20T08:55:40.619Z,75.86
2019-03-20T08:58:37.291Z,75.80
2019-03-20T09:04:16.415Z,73.25
2019-03-20T09:06:47.430Z,71.16
2019-03-20T09:09:19.203Z,70.14
2019-03-20T09:11:49.463Z,70.07
2019-03-20T09:14:19.754Z,70.09
2019-03-20T09:16:50.729Z,69.32
2019-03-20T09:19:21.728Z,66.20
2019-03-20T09:21:52.014Z,64.59
2019-03-20T09:24:22.315Z,63.65
2019-03-20T09:26:52.510Z,61.89
2019-03-20T09:29:22.992Z,63.41
2019-03-20T09:31:53.290Z,62.81
2019-03-20T09:34:23.617Z,63.61
2019-03-20T09:36:54.655Z,63.65
2019-03-20T09:39:25.080Z,62.32
2019-03-20T09:41:57.302Z,61.00
2019-03-20T09:44:27.572Z,56.63
2019-03-20T09:46:57.773Z,55.91
2019-03-20T09:49:28.070Z,56.28
2019-03-20T09:51:59.223Z,53.48
2019-03-20T09:54:29.642Z,49.99
2019-03-20T09:56:59.993Z,52.25
2019-03-20T09:59:30.285Z,51.71
2019-03-20T10:02:02.785Z,48.56
2019-03-20T10:04:33.705Z,47.33
2019-03-20T10:07:03.917Z,48.23
2019-03-20T10:09:34.239Z,48.31
2019-03-20T10:12:06.590Z,47.87
2019-03-20T10:14:36.807Z,44.77
2019-03-20T10:17:08.313Z,44.08
2019-03-20T10:19:38.615Z,45.65
2019-03-20T10:22:08.910Z,46.33
2019-03-20T10:24:39.176Z,47.48
2019-03-20T10:27:09.457Z,47.39
2019-03-20T10:29:39.736Z,46.37
2019-03-20T10:32:09.974Z,45.67
2019-03-20T10:34:40.282Z,45.96
2019-03-20T10:37:10.538Z,47.24
2019-03-20T10:39:40.696Z,47.56
2019-03-20T10:42:10.918Z,46.38
2019-03-20T10:45:03.986Z,47.40
2019-03-20T10:48:01.564Z,46.98
2019-03-20T10:50:57.025Z,47.44
2019-03-20T10:53:53.827Z,46.92
2019-03-20T10:56:49.409Z,45.62
2019-03-20T10:59:45.392Z,47.44
2019-03-20T11:02:40.757Z,46.11
2019-03-20T11:05:38.366Z,47.59
2019-03-20T11:08:35.859Z,45.70
2019-03-20T11:11:32.426Z,46.01
2019-03-20T11:14:29.158Z,46.67
2019-03-20T11:17:24.638Z,47.49
2019-03-20T11:20:21.151Z,46.91
2019-03-20T11:23:15.881Z,46.92
2019-03-20T11:26:12.782Z,45.55
2019-03-20T11:29:09.346Z,45.45
2019-03-20T11:32:07.098Z,44.17
2019-03-20T11:35:02.693Z,45.64
2019-03-20T11:38:00.237Z,46.99
2019-03-20T11:40:55.811Z,45.28
2019-03-20T11:43:51.889Z,44.08
2019-03-20T11:46:48.007Z,44.48
2019-03-20T11:49:44.523Z,44.75
2019-03-20T11:52:41.173Z,45.78
2019-03-20T11:55:36.694Z,44.42
2019-03-20T11:58:34.513Z,45.55
2019-03-20T12:01:30.320Z,43.32
2019-03-20T12:04:31.485Z,43.99
2019-03-20T12:07:28.631Z,44.17
2019-03-20T12:10:31.862Z,45.33
2019-03-20T12:13:28.620Z,43.48
2019-03-20T12:16:24.238Z,43.00
2019-03-20T12:19:21.381Z,42.44
2019-03-20T12:22:16.902Z,44.73
2019-03-20T12:25:13.510Z,43.10
2019-03-20T12:28:08.971Z,42.40
2019-03-20T12:31:06.685Z,41.89
2019-03-20T12:34:02.237Z,43.83
2019-03-20T12:36:57.670Z,41.05
2019-03-20T12:39:53.673Z,43.07
2019-03-20T12:42:49.602Z,42.76
2019-03-20T12:45:46.234Z,43.41
2019-03-20T12:48:42.994Z,43.94
2019-03-20T12:51:39.252Z,42.31
2019-03-20T12:54:34.955Z,44.33
2019-03-20T12:57:31.535Z,43.34
2019-03-20T13:00:31.227Z,43.77
2019-03-20T13:03:30.658Z,43.79
2019-03-20T13:06:24.197Z,43.54
2019-03-20T13:09:23.494Z,43.06
2019-03-20T13:12:20.144Z,42.87
2019-03-20T13:15:15.820Z,43.15
2019-03-20T13:18:12.390Z,44.06
2019-03-20T13:21:08.203Z,44.52
2019-03-20T13:24:05.111Z,44.33
2019-03-20T13:27:00.423Z,43.31
2019-03-20T13:29:57.912Z,43.96
2019-03-20T13:32:53.344Z,43.79
2019-03-20T13:35:49.349Z,44.10
2019-03-20T13:38:45.904Z,43.35
2019-03-20T13:41:41.588Z,43.73
2019-03-20T13:44:38.303Z,43.73
2019-03-20T13:47:50.107Z,44.27
2019-03-20T13:50:48.957Z,42.81
2019-03-20T13:53:44.633Z,43.11
2019-03-20T13:56:41.354Z,43.11
2019-03-20T13:59:37.041Z,43.63
2019-03-20T14:02:35.439Z,42.78
2019-03-20T14:05:32.295Z,41.59
2019-03-20T14:08:28.816Z,42.13
2019-03-20T14:11:25.887Z,41.56
2019-03-20T14:14:23.024Z,40.90
2019-03-20T14:17:19.453Z,41.94
2019-03-20T14:20:15.099Z,41.04
2019-03-20T14:23:11.913Z,40.51
2019-03-20T14:26:08.497Z,41.89
2019-03-20T14:29:04.346Z,39.55
2019-03-20T14:32:01.936Z,41.12
2019-03-20T14:34:57.743Z,42.28
2019-03-20T14:37:54.032Z,39.85
2019-03-20T14:40:51.238Z,38.94
2019-03-20T14:43:48.040Z,40.05
2019-03-20T14:46:47.313Z,40.14
2019-03-20T14:49:43.910Z,40.18
2019-03-20T14:52:40.489Z,41.03
2019-03-20T14:55:36.145Z,39.45
2019-03-20T14:58:32.427Z,40.27
2019-03-20T15:01:28.063Z,39.50
2019-03-20T15:04:25.425Z,38.91
2019-03-20T15:07:21.472Z,38.17
2019-03-20T15:10:18.373Z,38.17
2019-03-20T15:13:13.941Z,36.35
2019-03-20T15:16:15.004Z,35.96
2019-03-20T15:19:10.745Z,36.08
2019-03-20T15:22:08.393Z,35.55
2019-03-20T15:25:05.291Z,36.90
2019-03-20T15:28:01.227Z,36.02
2019-03-20T15:30:57.867Z,37.15
2019-03-20T15:33:53.508Z,36.81
2019-03-20T15:36:50.072Z,35.19
2019-03-20T15:39:44.760Z,36.24
2019-03-20T15:42:42.608Z,37.01
2019-03-20T15:45:38.194Z,36.69
2019-03-20T15:48:34.919Z,36.44
2019-03-20T15:51:32.502Z,38.04
2019-03-20T15:54:28.248Z,37.76
2019-03-20T15:57:24.997Z,38.32
2019-03-20T16:00:20.576Z,39.50
2019-03-20T16:03:26.113Z,39.47
2019-03-20T16:06:22.857Z,38.99
2019-03-20T16:09:18.833Z,39.39
2019-03-20T16:12:15.385Z,40.47
2019-03-20T16:15:12.282Z,39.75
2019-03-20T16:18:10.200Z,40.87
2019-03-20T16:21:06.002Z,41.20
2019-03-20T16:24:02.629Z,41.02
2019-03-20T16:26:58.483Z,41.67
2019-03-20T16:29:55.382Z,41.70
2019-03-20T16:32:51.918Z,43.11
2019-03-20T16:35:48.580Z,43.09
2019-03-20T16:38:45.413Z,42.42
2019-03-20T16:41:41.029Z,43.18
2019-03-20T16:44:37.632Z,43.31
2019-03-20T16:47:33.451Z,42.65
2019-03-20T16:50:30.043Z,43.60
2019-03-20T16:53:25.745Z,43.17
2019-03-20T16:56:22.340Z,44.14
2019-03-20T16:59:17.718Z,43.96
2019-03-20T17:02:15.355Z,44.23
2019-03-20T17:05:11.991Z,44.07
2019-03-20T17:08:08.688Z,44.55
2019-03-20T17:11:04.510Z,45.34
2019-03-20T17:14:01.687Z,46.17
2019-03-20T17:16:57.404Z,45.76
2019-03-20T17:19:54.940Z,45.69
2019-03-20T17:22:51.051Z,46.04
2019-03-20T17:25:47.931Z,45.56
2019-03-20T17:28:43.747Z,46.19
2019-03-20T17:31:41.437Z,46.44
2019-03-20T17:34:37.291Z,46.56
2019-03-20T17:37:34.030Z,47.14
2019-03-20T17:40:30.711Z,47.35
2019-03-20T17:43:27.721Z,47.69
2019-03-20T17:46:22.451Z,48.09
2019-03-20T17:49:19.094Z,48.55
2019-03-20T17:52:14.616Z,48.77
2019-03-20T17:55:11.290Z,48.67
2019-03-20T17:58:06.981Z,48.87
2019-03-20T18:01:03.399Z,49.09
2019-03-20T18:04:01.321Z,49.60
2019-03-20T18:06:58.338Z,49.85
2019-03-20T18:09:53.816Z,50.48
2019-03-20T18:12:50.676Z,50.90
2019-03-20T18:15:46.621Z,51.13
2019-03-20T18:18:43.448Z,52.33
2019-03-20T18:21:40.961Z,52.44
2019-03-20T18:24:37.112Z,53.01
2019-03-20T18:27:34.863Z,53.62
2019-03-20T18:30:34.703Z,54.11
2019-03-20T18:33:31.035Z,54.27
2019-03-20T18:36:25.865Z,54.72
2019-03-20T18:39:23.763Z,55.61
2019-03-20T18:42:19.561Z,55.86
2019-03-20T18:45:16.981Z,56.12
2019-03-20T18:48:13.575Z,57.19
2019-03-20T18:51:10.191Z,57.77
2019-03-20T18:54:06.914Z,58.48
2019-03-20T18:57:03.808Z,58.77
2019-03-20T19:00:03.275Z,60.26
2019-03-20T19:03:00.155Z,61.29
2019-03-20T19:06:09.141Z,62.92
2019-03-20T19:09:04.991Z,63.42
2019-03-20T19:12:08.487Z,64.12
2019-03-20T19:14:58.876Z,64.28
2019-03-20T19:17:55.833Z,64.58
2019-03-20T19:20:51.147Z,64.73
2019-03-20T19:23:49.147Z,65.15
2019-03-20T19:26:44.814Z,65.83
2019-03-20T19:29:41.573Z,66.68
2019-03-20T19:32:37.412Z,67.40
2019-03-20T19:35:33.774Z,68.40
2019-03-20T19:38:34.922Z,68.81
2019-03-20T19:41:26.524Z,69.93
2019-03-20T19:44:25.956Z,70.63
2019-03-20T19:47:21.931Z,70.87
2019-03-20T19:50:18.961Z,70.76
2019-03-20T19:53:14.337Z,70.96
2019-03-20T19:56:12.045Z,71.01
2019-03-20T19:59:07.934Z,71.06
2019-03-20T20:02:04.232Z,71.95
2019-03-20T20:05:01.852Z,72.13
2019-03-20T20:07:59.617Z,73.16
2019-03-20T20:10:55.361Z,73.00
2019-03-20T20:13:51.727Z,73.82
2019-03-20T20:16:47.413Z,74.40
2019-03-20T20:19:44.257Z,74.58
2019-03-20T20:22:39.661Z,75.28
2019-03-20T20:25:37.584Z,76.03
2019-03-20T20:28:35.005Z,75.83
2019-03-20T20:31:30.803Z,75.47
2019-03-20T20:34:27.568Z,75.74
2019-03-20T20:37:23.477Z,76.49
2019-03-20T20:40:20.083Z,76.61
2019-03-20T20:43:15.722Z,77.28
2019-03-20T20:46:13.491Z,77.00
2019-03-20T20:49:09.857Z,77.35
2019-03-20T20:52:06.167Z,77.18
2019-03-20T20:55:01.882Z,78.17
2019-03-20T20:57:58.269Z,78.71
2019-03-20T21:00:54.087Z,78.72
2019-03-20T21:03:50.588Z,78.78
2019-03-20T21:06:48.442Z,79.24
2019-03-20T21:09:46.060Z,79.03
2019-03-20T21:12:42.691Z,79.39
2019-03-20T21:15:54.793Z,80.39
2019-03-20T21:19:27.923Z,81.68
2019-03-20T21:22:51.008Z,81.68
2019-03-20T21:25:50.650Z,81.83
2019-03-20T21:29:45.057Z,81.44
2019-03-20T21:32:52.235Z,82.19
2019-03-20T21:36:11.990Z,82.53
2019-03-20T21:39:10.264Z,83.13
2019-03-20T21:42:32.422Z,83.25
2019-03-20T21:45:54.799Z,83.57
2019-03-20T21:48:49.445Z,84.21
2019-03-20T21:51:45.780Z,84.41
2019-03-20T21:55:08.599Z,85.26
2019-03-20T21:58:21.382Z,85.83
2019-03-20T22:01:52.067Z,86.46
2019-03-20T22:04:49.151Z,86.64
2019-03-20T22:07:46.217Z,86.46
2019-03-20T22:11:10.611Z,86.34
2019-03-20T22:14:13.577Z,86.49
2019-03-20T22:17:34.383Z,86.30
2019-03-20T22:21:01.400Z,85.78
2019-03-20T22:24:18.348Z,86.04
2019-03-20T22:27:42.381Z,86.09
2019-03-20T22:30:38.485Z,86.19
2019-03-20T22:33:58.682Z,86.26
2019-03-20T22:36:56.823Z,86.26
2019-03-20T22:40:27.094Z,86.45
2019-03-20T22:43:37.737Z,86.31
2019-03-20T22:46:57.469Z,86.93
2019-03-20T22:50:25.261Z,87.00
2019-03-20T22:53:57.188Z,86.69
2019-03-20T22:57:11.306Z,87.04
2019-03-20T23:00:08.787Z,86.82
2019-03-20T23:03:24.449Z,86.50
2019-03-20T23:06:22.432Z,86.41
2019-03-20T23:09:18.148Z,86.69
2019-03-20T23:12:17.816Z,86.86
2019-03-20T23:15:13.000Z,87.08
2019-03-20T23:18:10.458Z,87.83
2019-03-20T23:21:07.934Z,88.61
2019-03-20T23:24:03.858Z,89.36
2019-03-20T23:27:01.047Z,89.60
2019-03-20T23:29:59.368Z,89.66
2019-03-20T23:32:56.188Z,89.74
2019-03-20T23:35:53.342Z,89.58
2019-03-20T23:38:48.549Z,88.97
2019-03-20T23:41:45.287Z,88.80
2019-03-20T23:44:41.550Z,88.63
2019-03-20T23:47:41.786Z,88.92
2019-03-20T23:50:37.923Z,88.89
2019-03-20T23:53:35.194Z,88.89
2019-03-20T23:56:32.129Z,88.85
2019-03-20T23:59:30.077Z,88.97
